Time;durP1;ratioP1;P1;durP2;ratioP2;P2;SDS_P1;SDS_P2;PMS_P1;PMS_P2;Temp;Humidity;BMP_temperature;BMP_pressure;BME280_temperature;BME280_humidity;BME280_pressure;Samples;Min_cycle;Max_cycle;Signal;HPM_P1;HPM_P2
2022/09/17 00:01:39;;;;;;;1.93;0.70;;;17.80;55.60;;;;;;4881306;29;20945;-73
2022/09/17 00:04:10;;;;;;;0.93;0.60;;;17.80;55.70;;;;;;4874350;29;20473;-74
2022/09/17 00:06:39;;;;;;;1.07;0.70;;;17.80;55.70;;;;;;4884514;29;20497;-73
2022/09/17 00:09:08;;;;;;;1.67;0.70;;;17.80;55.70;;;;;;4891063;29;20528;-72
2022/09/17 00:11:39;;;;;;;3.10;1.20;;;17.80;55.50;;;;;;4892009;29;20479;-68
2022/09/17 00:14:13;;;;;;;1.93;0.80;;;17.80;55.40;;;;;;4882019;29;20465;-67
2022/09/17 00:16:43;;;;;;;1.90;0.80;;;17.80;55.60;;;;;;4883952;29;20497;-65
2022/09/17 00:19:16;;;;;;;5.10;0.80;;;17.80;55.70;;;;;;4889522;29;20482;-66
2022/09/17 00:21:44;;;;;;;1.67;0.73;;;17.80;55.70;;;;;;4893360;29;20709;-67
2022/09/17 00:24:14;;;;;;;1.97;1.07;;;17.80;55.70;;;;;;4886649;29;20442;-67
2022/09/17 00:26:43;;;;;;;2.33;0.90;;;17.70;55.50;;;;;;4881886;29;20486;-67
2022/09/17 00:29:12;;;;;;;1.83;1.23;;;17.70;55.70;;;;;;4869688;29;20920;-67
2022/09/17 00:31:41;;;;;;;1.03;0.87;;;17.70;55.60;;;;;;4886500;29;20504;-67
2022/09/17 00:34:11;;;;;;;1.87;0.80;;;17.70;55.70;;;;;;4890352;29;20886;-68
2022/09/17 00:36:40;;;;;;;2.30;1.13;;;17.70;55.70;;;;;;4874666;29;20487;-67
2022/09/17 00:39:11;;;;;;;1.33;0.93;;;17.70;55.60;;;;;;4874180;29;20951;-66
2022/09/17 00:41:40;;;;;;;1.10;0.67;;;17.70;55.60;;;;;;4877539;29;20486;-68
2022/09/17 00:44:41;;;;;;;1.47;0.90;;;17.70;55.60;;;;;;4883718;29;20457;-66
2022/09/17 00:47:15;;;;;;;1.67;0.90;;;17.70;55.60;;;;;;4872923;29;20575;-68
2022/09/17 00:49:44;;;;;;;2.80;1.37;;;17.70;55.60;;;;;;4878355;29;20444;-67
2022/09/17 00:52:18;;;;;;;1.47;0.90;;;17.70;55.70;;;;;;4879390;29;20989;-66
2022/09/17 00:54:54;;;;;;;2.20;0.77;;;17.70;55.50;;;;;;4891365;29;20481;-68
2022/09/17 00:57:22;;;;;;;1.87;0.90;;;17.70;55.60;;;;;;4875253;29;20568;-66
2022/09/17 00:59:51;;;;;;;2.33;1.10;;;17.70;55.60;;;;;;4893704;29;20445;-68
2022/09/17 01:02:20;;;;;;;3.37;0.70;;;17.70;55.50;;;;;;4888110;29;20486;-68
2022/09/17 01:04:50;;;;;;;1.60;1.00;;;17.70;55.60;;;;;;4900162;29;20559;-66
2022/09/17 01:07:43;;;;;;;1.70;0.80;;;17.70;55.60;;;;;;4896294;29;20573;-66
2022/09/17 01:10:24;;;;;;;2.30;0.90;;;17.70;55.50;;;;;;4877685;29;20448;-66
2022/09/17 01:13:05;;;;;;;1.33;0.67;;;17.70;55.40;;;;;;4876472;29;20451;-69
2022/09/17 01:15:41;;;;;;;2.40;1.07;;;17.60;55.60;;;;;;4877030;29;20478;-67
2022/09/17 01:18:22;;;;;;;2.10;1.20;;;17.70;55.70;;;;;;4876537;29;20489;-67
2022/09/17 01:21:28;;;;;;;2.47;0.90;;;17.70;55.70;;;;;;4891685;29;20478;-65
2022/09/17 01:24:48;;;;;;;2.90;1.33;;;17.70;55.40;;;;;;4891375;29;20472;-68
2022/09/17 01:27:58;;;;;;;2.10;1.00;;;17.60;55.60;;;;;;4842846;29;20585;-67
2022/09/17 01:30:43;;;;;;;2.33;1.10;;;17.60;55.60;;;;;;4879816;29;20529;-68
2022/09/17 01:33:16;;;;;;;1.40;1.00;;;17.60;55.70;;;;;;4861293;29;20537;-67
2022/09/17 01:35:53;;;;;;;1.00;0.70;;;17.60;55.80;;;;;;4872379;29;20501;-68
2022/09/17 01:38:27;;;;;;;2.47;1.10;;;17.60;55.60;;;;;;4891600;29;20969;-68
2022/09/17 01:41:06;;;;;;;5.70;1.47;;;17.60;55.60;;;;;;4902328;29;20849;-67
2022/09/17 01:43:42;;;;;;;2.00;0.80;;;17.60;55.60;;;;;;4879687;29;21226;-65
2022/09/17 01:46:18;;;;;;;4.67;1.30;;;17.60;55.70;;;;;;4874906;29;20478;-69
2022/09/17 01:48:50;;;;;;;2.10;1.10;;;17.60;55.60;;;;;;4866116;29;20470;-67
2022/09/17 01:51:22;;;;;;;5.07;0.97;;;17.60;55.70;;;;;;4876109;29;20837;-66
2022/09/17 01:53:56;;;;;;;1.83;0.70;;;17.60;55.70;;;;;;4875181;29;20446;-66
2022/09/17 01:56:33;;;;;;;1.37;0.80;;;17.60;55.70;;;;;;4867680;29;20811;-66
2022/09/17 01:59:22;;;;;;;2.20;1.10;;;17.50;55.60;;;;;;4877548;29;20792;-67
2022/09/17 02:02:15;;;;;;;3.47;1.10;;;17.60;55.70;;;;;;4983403;23;20555;-72
2022/09/17 02:05:08;;;;;;;4.03;1.33;;;17.60;55.70;;;;;;4902388;29;20989;-72
2022/09/17 02:07:42;;;;;;;3.03;1.00;;;17.60;55.70;;;;;;4863398;29;20442;-72
2022/09/17 02:10:16;;;;;;;2.23;1.10;;;17.50;55.60;;;;;;4891079;29;20483;-72
2022/09/17 02:12:49;;;;;;;2.60;1.20;;;17.50;55.60;;;;;;4902758;29;20470;-72
2022/09/17 02:15:22;;;;;;;2.30;1.20;;;17.50;55.60;;;;;;4877891;29;20502;-73
2022/09/17 02:17:55;;;;;;;1.53;0.70;;;17.50;55.60;;;;;;4889003;29;20808;-73
2022/09/17 02:20:29;;;;;;;1.23;0.80;;;17.50;55.60;;;;;;4880660;29;20443;-72
2022/09/17 02:23:03;;;;;;;2.47;1.13;;;17.50;55.50;;;;;;4894891;29;20438;-73
2022/09/17 02:25:36;;;;;;;1.80;0.90;;;17.50;55.50;;;;;;4876686;29;20557;-73
2022/09/17 02:28:11;;;;;;;3.80;0.70;;;17.50;55.60;;;;;;4912311;29;20502;-72
2022/09/17 02:30:40;;;;;;;1.40;0.90;;;17.50;55.50;;;;;;4879141;29;20509;-72
2022/09/17 02:33:13;;;;;;;3.63;1.40;;;17.50;55.60;;;;;;4894680;29;20862;-73
2022/09/17 02:35:45;;;;;;;3.67;1.07;;;17.50;55.60;;;;;;4908134;29;20874;-72
2022/09/17 02:38:13;;;;;;;1.33;1.10;;;17.50;55.60;;;;;;4894743;29;20470;-71
2022/09/17 02:41:06;;;;;;;2.70;0.90;;;17.50;55.60;;;;;;4907348;29;20485;-71
2022/09/17 02:43:41;;;;;;;1.90;0.70;;;17.50;55.60;;;;;;4942597;23;20504;-52
2022/09/17 02:46:41;;;;;;;3.67;1.30;;;17.50;55.60;;;;;;4924440;29;20967;-54
2022/09/17 02:49:33;;;;;;;1.13;0.70;;;17.50;55.60;;;;;;4949575;28;21067;-52
2022/09/17 02:52:13;;;;;;;3.17;1.13;;;17.40;55.60;;;;;;4919017;29;20976;-55
2022/09/17 02:54:51;;;;;;;1.90;0.70;;;17.40;55.50;;;;;;4915416;29;20480;-55
2022/09/17 02:57:27;;;;;;;2.70;1.20;;;17.40;55.60;;;;;;4910359;29;20499;-54
2022/09/17 03:00:06;;;;;;;2.13;1.00;;;17.40;55.60;;;;;;4916070;29;20441;-55
2022/09/17 03:02:39;;;;;;;5.77;0.87;;;17.40;55.60;;;;;;4914533;29;20472;-55
2022/09/17 03:05:10;;;;;;;1.93;1.10;;;17.40;55.70;;;;;;4898767;29;20555;-56
2022/09/17 03:07:39;;;;;;;2.40;0.90;;;17.40;55.60;;;;;;4916173;29;20528;-54
2022/09/17 03:10:08;;;;;;;1.87;1.00;;;17.40;55.60;;;;;;4915201;29;20476;-56
2022/09/17 03:12:37;;;;;;;1.63;0.73;;;17.40;55.70;;;;;;4907292;29;20849;-53
2022/09/17 03:15:07;;;;;;;2.83;1.13;;;17.40;55.70;;;;;;4925720;29;20575;-55
2022/09/17 03:17:35;;;;;;;2.20;0.77;;;17.40;55.60;;;;;;4933167;29;20828;-54
2022/09/17 03:20:05;;;;;;;1.73;0.80;;;17.40;55.70;;;;;;4947914;29;20441;-53
2022/09/17 03:22:37;;;;;;;1.67;0.90;;;17.40;55.70;;;;;;4926551;29;20452;-54
2022/09/17 03:25:06;;;;;;;2.73;1.30;;;17.30;55.70;;;;;;4919446;29;20531;-54
2022/09/17 03:27:35;;;;;;;1.20;0.73;;;17.40;55.80;;;;;;4918480;29;20470;-54
2022/09/17 03:30:05;;;;;;;2.27;0.90;;;17.30;55.70;;;;;;4919164;29;20476;-53
2022/09/17 03:32:33;;;;;;;2.50;1.00;;;17.30;55.70;;;;;;4949167;29;20804;-54
2022/09/17 03:35:02;;;;;;;3.07;1.20;;;17.30;55.70;;;;;;4901619;29;20471;-56
2022/09/17 03:37:30;;;;;;;3.70;1.20;;;17.30;55.70;;;;;;4918946;29;20483;-55
2022/09/17 03:40:02;;;;;;;1.87;1.47;;;17.30;55.80;;;;;;4951172;29;20483;-56
2022/09/17 03:42:31;;;;;;;3.13;1.23;;;17.30;56.10;;;;;;4914314;29;20469;-54
2022/09/17 03:44:59;;;;;;;3.23;1.10;;;17.30;55.80;;;;;;4926486;29;20476;-54
2022/09/17 03:47:28;;;;;;;3.23;1.10;;;17.30;55.80;;;;;;4932287;29;20575;-55
2022/09/17 03:49:56;;;;;;;1.67;1.13;;;17.30;55.90;;;;;;4958563;28;20467;-55
2022/09/17 03:52:25;;;;;;;2.47;1.03;;;17.30;55.80;;;;;;4910180;29;20535;-53
2022/09/17 03:54:53;;;;;;;2.37;0.90;;;17.30;55.90;;;;;;4949751;29;20494;-55
2022/09/17 03:57:23;;;;;;;2.90;1.27;;;17.30;55.90;;;;;;4910804;29;20488;-55
2022/09/17 03:59:52;;;;;;;1.50;0.80;;;17.30;55.80;;;;;;4947255;29;20516;-54
2022/09/17 04:02:20;;;;;;;4.80;0.80;;;17.30;55.90;;;;;;4934648;29;20487;-55
2022/09/17 04:04:49;;;;;;;2.67;0.87;;;17.30;55.90;;;;;;4950753;28;20878;-54
2022/09/17 04:07:17;;;;;;;3.10;1.03;;;17.30;55.90;;;;;;4918334;29;20845;-55
2022/09/17 04:09:46;;;;;;;2.17;0.70;;;17.20;55.80;;;;;;4918569;29;20898;-54
2022/09/17 04:12:15;;;;;;;2.93;1.30;;;17.30;55.90;;;;;;4942174;28;20847;-54
2022/09/17 04:14:45;;;;;;;2.40;1.07;;;17.20;55.80;;;;;;4933306;29;20488;-55
2022/09/17 04:17:16;;;;;;;3.67;1.70;;;17.20;55.90;;;;;;4949445;28;20480;-55
2022/09/17 04:19:45;;;;;;;2.00;1.03;;;17.20;55.90;;;;;;4918130;29;20954;-53
2022/09/17 04:22:13;;;;;;;2.30;0.70;;;17.20;55.90;;;;;;4906764;29;21012;-54
2022/09/17 04:24:42;;;;;;;2.67;1.30;;;17.20;56.10;;;;;;4949561;29;20838;-55
2022/09/17 04:27:10;;;;;;;3.73;1.23;;;17.20;55.90;;;;;;4910082;29;20486;-53
2022/09/17 04:29:39;;;;;;;2.27;0.90;;;17.20;55.90;;;;;;4948149;29;20465;-55
2022/09/17 04:32:09;;;;;;;3.40;1.23;;;17.20;55.90;;;;;;4917426;29;20845;-53
2022/09/17 04:34:37;;;;;;;0.80;0.67;;;17.20;55.90;;;;;;4947738;29;20469;-55
2022/09/17 04:37:06;;;;;;;2.07;1.20;;;17.20;57.00;;;;;;4932956;29;20482;-53
2022/09/17 04:39:34;;;;;;;2.17;0.80;;;17.20;55.90;;;;;;4935420;29;20463;-55
2022/09/17 04:42:03;;;;;;;1.53;0.90;;;17.20;55.90;;;;;;4926628;28;20885;-56
2022/09/17 04:44:32;;;;;;;1.77;0.80;;;17.20;56.00;;;;;;4944299;28;20836;-54
2022/09/17 04:47:00;;;;;;;4.20;1.87;;;17.20;55.90;;;;;;4935279;29;20508;-53
2022/09/17 04:49:31;;;;;;;1.67;1.03;;;17.20;55.90;;;;;;4916706;29;20769;-55
2022/09/17 04:52:00;;;;;;;2.33;1.27;;;17.20;56.00;;;;;;4946655;28;20500;-55
2022/09/17 04:54:28;;;;;;;2.43;0.87;;;17.10;55.90;;;;;;4917414;29;20795;-54
2022/09/17 04:56:57;;;;;;;3.10;0.93;;;17.10;56.00;;;;;;4940076;29;20531;-54
2022/09/17 04:59:26;;;;;;;3.00;1.30;;;17.10;56.10;;;;;;4917448;29;20535;-55
2022/09/17 05:01:54;;;;;;;4.90;1.30;;;17.10;56.00;;;;;;4941693;28;20472;-53
2022/09/17 05:04:23;;;;;;;2.23;1.03;;;17.10;56.10;;;;;;4915411;29;20473;-54
2022/09/17 05:06:53;;;;;;;1.43;0.80;;;17.10;56.00;;;;;;4916842;29;20994;-55
2022/09/17 05:09:22;;;;;;;4.07;1.50;;;17.10;56.20;;;;;;4948987;29;20444;-57
2022/09/17 05:11:50;;;;;;;1.70;1.00;;;17.10;56.10;;;;;;4914941;29;20531;-54
2022/09/17 05:14:19;;;;;;;3.60;1.27;;;17.10;56.00;;;;;;4917342;29;21054;-54
2022/09/17 05:16:48;;;;;;;4.00;0.70;;;17.10;56.00;;;;;;4933148;29;20499;-55
2022/09/17 05:19:17;;;;;;;1.30;1.00;;;17.10;56.00;;;;;;4945268;29;20460;-54
2022/09/17 05:21:46;;;;;;;4.30;1.37;;;17.10;56.10;;;;;;4915817;29;20487;-55
2022/09/17 05:24:16;;;;;;;3.07;0.80;;;17.10;56.20;;;;;;4948631;29;20552;-54
2022/09/17 05:26:44;;;;;;;2.47;1.00;;;17.10;56.10;;;;;;4940010;28;20473;-53
2022/09/17 05:29:13;;;;;;;2.00;0.77;;;17.10;56.10;;;;;;4949008;29;20499;-55
2022/09/17 05:31:42;;;;;;;3.80;0.90;;;17.10;56.20;;;;;;4916297;29;21709;-55
2022/09/17 05:34:11;;;;;;;2.03;0.77;;;17.10;56.20;;;;;;4933739;29;20452;-54
2022/09/17 05:36:39;;;;;;;0.90;0.70;;;17.10;56.20;;;;;;4915110;29;20469;-54
2022/09/17 05:39:08;;;;;;;1.47;0.97;;;17.00;56.20;;;;;;4947783;28;20436;-54
2022/09/17 05:41:38;;;;;;;3.33;1.20;;;17.00;56.20;;;;;;4897725;29;20886;-55
2022/09/17 05:44:07;;;;;;;3.60;1.40;;;17.00;56.30;;;;;;4915862;29;20956;-55
2022/09/17 05:46:35;;;;;;;3.57;1.20;;;17.00;56.30;;;;;;4898620;29;20600;-54
2022/09/17 05:49:04;;;;;;;1.93;1.30;;;17.00;56.30;;;;;;4953830;28;20459;-54
2022/09/17 05:51:36;;;;;;;3.17;1.50;;;17.00;56.30;;;;;;4930817;28;20503;-54
2022/09/17 05:54:05;;;;;;;3.07;1.00;;;17.00;56.40;;;;;;4947985;28;20855;-54
2022/09/17 05:56:34;;;;;;;3.47;1.47;;;17.00;56.30;;;;;;4927916;29;20698;-55
2022/09/17 05:59:04;;;;;;;2.93;1.10;;;17.00;56.40;;;;;;4916560;29;20952;-54
2022/09/17 06:01:33;;;;;;;1.47;0.90;;;17.00;56.40;;;;;;4915767;29;20509;-54
2022/09/17 06:04:02;;;;;;;4.10;0.77;;;17.00;56.40;;;;;;4918044;29;20440;-54
2022/09/17 06:06:31;;;;;;;4.77;1.00;;;16.90;56.40;;;;;;4945761;28;20980;-55
2022/09/17 06:09:03;;;;;;;1.53;1.00;;;16.90;56.40;;;;;;4942612;29;20428;-54
2022/09/17 06:11:32;;;;;;;2.80;0.90;;;16.90;56.50;;;;;;4937485;28;20481;-53
2022/09/17 06:14:01;;;;;;;5.07;1.60;;;16.90;56.50;;;;;;4933533;29;21012;-55
2022/09/17 06:16:31;;;;;;;2.60;0.80;;;16.90;56.50;;;;;;4944560;28;20599;-55
2022/09/17 06:19:00;;;;;;;2.37;0.93;;;16.90;56.50;;;;;;4916328;29;20436;-52
2022/09/17 06:21:28;;;;;;;1.97;1.03;;;16.90;56.60;;;;;;4914194;29;20568;-54
2022/09/17 06:23:57;;;;;;;1.87;1.10;;;16.90;56.60;;;;;;4941463;29;20452;-56
2022/09/17 06:26:27;;;;;;;4.67;0.93;;;16.90;56.80;;;;;;4945509;28;20484;-54
2022/09/17 06:28:56;;;;;;;1.90;0.90;;;16.90;56.70;;;;;;4920493;29;20490;-54
2022/09/17 06:31:25;;;;;;;5.23;1.10;;;16.90;56.70;;;;;;4943176;28;21007;-55
2022/09/17 06:33:56;;;;;;;4.13;1.30;;;16.90;56.70;;;;;;4915656;29;20527;-55
2022/09/17 06:36:26;;;;;;;1.87;0.70;;;16.90;56.70;;;;;;4914648;29;20891;-54
2022/09/17 06:38:59;;;;;;;2.70;1.03;;;16.90;56.70;;;;;;4915947;29;20451;-54
2022/09/17 06:41:29;;;;;;;2.30;1.10;;;16.90;56.80;;;;;;4931546;29;20472;-55
2022/09/17 06:43:58;;;;;;;2.23;1.13;;;16.90;56.80;;;;;;4932358;29;20520;-56
2022/09/17 06:46:27;;;;;;;2.93;1.50;;;16.90;56.80;;;;;;4931610;28;20520;-54
2022/09/17 06:48:57;;;;;;;3.20;1.10;;;16.90;56.70;;;;;;4918543;29;20867;-54
2022/09/17 06:51:26;;;;;;;3.43;1.00;;;16.90;56.90;;;;;;4911766;29;20476;-52
2022/09/17 06:53:55;;;;;;;2.00;0.70;;;16.90;56.80;;;;;;4938727;29;20937;-54
2022/09/17 06:56:24;;;;;;;2.27;0.70;;;16.80;58.30;;;;;;4914515;29;20459;-54
2022/09/17 06:58:54;;;;;;;4.07;1.10;;;16.90;57.10;;;;;;4915489;29;21042;-54
2022/09/17 07:01:23;;;;;;;1.80;1.27;;;16.90;57.00;;;;;;4910510;29;20556;-55
2022/09/17 07:03:52;;;;;;;1.93;0.70;;;16.80;57.00;;;;;;4948132;28;20464;-54
2022/09/17 07:06:22;;;;;;;1.63;1.20;;;16.80;56.80;;;;;;4937520;28;20513;-54
2022/09/17 07:08:51;;;;;;;2.67;0.90;;;16.90;57.00;;;;;;4932603;29;20432;-54
2022/09/17 07:11:20;;;;;;;2.50;1.03;;;16.90;56.90;;;;;;4913379;29;20523;-54
2022/09/17 07:13:48;;;;;;;1.23;1.13;;;16.90;56.90;;;;;;4916057;29;20451;-55
2022/09/17 07:16:18;;;;;;;2.10;1.33;;;16.90;56.90;;;;;;4949231;28;20503;-53
2022/09/17 07:18:47;;;;;;;2.03;1.20;;;16.90;56.80;;;;;;4915935;29;20504;-54
2022/09/17 07:21:15;;;;;;;3.30;1.20;;;16.80;56.80;;;;;;4940013;28;20493;-54
2022/09/17 07:23:46;;;;;;;2.07;0.93;;;16.80;56.80;;;;;;4941817;29;20436;-55
2022/09/17 07:26:18;;;;;;;2.87;0.93;;;16.80;56.80;;;;;;4926459;28;20484;-53
2022/09/17 07:28:47;;;;;;;4.40;0.83;;;16.90;56.90;;;;;;4915606;29;20975;-54
2022/09/17 07:31:16;;;;;;;2.27;0.80;;;16.80;56.90;;;;;;4950390;28;20539;-54
2022/09/17 07:33:45;;;;;;;2.70;1.17;;;16.80;56.90;;;;;;4914695;29;20995;-55
2022/09/17 07:36:16;;;;;;;3.27;1.20;;;16.80;57.00;;;;;;4946187;28;20480;-53
2022/09/17 07:38:47;;;;;;;1.70;1.00;;;16.90;58.20;;;;;;4915356;29;20464;-53
2022/09/17 07:41:17;;;;;;;2.70;1.30;;;16.90;57.10;;;;;;4947468;28;20511;-53
2022/09/17 07:43:46;;;;;;;3.10;1.07;;;16.80;57.00;;;;;;4938126;29;20983;-53
2022/09/17 07:46:17;;;;;;;2.70;1.43;;;16.80;57.00;;;;;;4955245;28;20483;-53
2022/09/17 07:48:47;;;;;;;3.97;1.00;;;16.90;57.10;;;;;;4932312;29;20440;-55
2022/09/17 07:51:17;;;;;;;1.37;1.07;;;16.90;57.20;;;;;;4925893;28;20961;-53
2022/09/17 07:53:49;;;;;;;3.17;1.40;;;16.90;57.20;;;;;;4915469;29;21013;-54
2022/09/17 07:56:18;;;;;;;2.97;1.50;;;16.90;57.10;;;;;;4908521;29;20488;-54
2022/09/17 07:58:47;;;;;;;3.10;1.20;;;16.90;57.70;;;;;;4921695;29;20453;-55
2022/09/17 08:01:24;;;;;;;3.83;1.20;;;16.90;57.50;;;;;;4909508;29;20476;-53
2022/09/17 08:03:55;;;;;;;2.67;1.90;;;16.90;57.40;;;;;;4904031;29;20462;-72
2022/09/17 08:06:26;;;;;;;1.10;0.90;;;16.90;57.30;;;;;;4881787;29;20474;-74
2022/09/17 08:08:58;;;;;;;3.70;1.03;;;16.90;57.40;;;;;;4878892;29;20443;-73
2022/09/17 08:11:28;;;;;;;3.57;1.27;;;16.90;57.40;;;;;;4869834;29;21014;-72
2022/09/17 08:14:17;;;;;;;3.60;1.30;;;16.90;57.40;;;;;;4888720;29;20470;-73
2022/09/17 08:16:46;;;;;;;4.07;1.10;;;16.90;58.40;;;;;;4874315;29;20467;-73
2022/09/17 08:19:17;;;;;;;4.80;1.70;;;16.90;57.20;;;;;;4891430;29;20946;-73
2022/09/17 08:21:46;;;;;;;4.40;1.53;;;16.90;57.20;;;;;;4868936;29;20519;-73
2022/09/17 08:24:16;;;;;;;2.30;1.00;;;16.90;57.20;;;;;;4888627;29;20456;-71
2022/09/17 08:26:44;;;;;;;3.30;1.80;;;16.90;57.20;;;;;;4868712;29;20479;-72
2022/09/17 08:29:13;;;;;;;1.50;0.97;;;16.90;57.30;;;;;;4874187;29;21038;-74
2022/09/17 08:31:42;;;;;;;4.23;1.73;;;16.90;57.30;;;;;;4888408;29;20510;-74
2022/09/17 08:34:11;;;;;;;2.23;0.97;;;16.90;57.30;;;;;;4871930;29;20458;-72
2022/09/17 08:36:43;;;;;;;2.07;1.37;;;16.90;57.30;;;;;;4872763;29;20483;-72
2022/09/17 08:39:12;;;;;;;2.60;1.20;;;16.90;57.40;;;;;;4884422;29;20452;-74
2022/09/17 08:41:52;;;;;;;4.13;1.00;;;16.90;57.40;;;;;;4886481;29;20829;-75
2022/09/17 08:44:25;;;;;;;6.93;1.47;;;16.90;57.40;;;;;;4883219;29;20463;-73
2022/09/17 08:47:01;;;;;;;2.67;1.43;;;16.90;57.40;;;;;;4884093;29;20928;-73
2022/09/17 08:49:40;;;;;;;3.30;1.50;;;16.90;57.50;;;;;;4889567;29;20451;-73
2022/09/17 08:52:55;;;;;;;2.67;1.20;;;16.90;57.50;;;;;;4873158;29;21204;-73
2022/09/17 08:55:37;;;;;;;4.40;1.87;;;16.80;57.80;;;;;;4874599;29;20475;-74
2022/09/17 08:58:34;;;;;;;2.43;1.10;;;16.80;58.30;;;;;;4880760;29;20714;-74
2022/09/17 09:01:11;;;;;;;5.87;1.63;;;16.80;58.30;;;;;;4883284;29;20891;-72
2022/09/17 09:03:55;;;;;;;4.20;1.60;;;16.80;58.30;;;;;;4873950;29;20474;-74
2022/09/17 09:06:29;;;;;;;3.10;1.10;;;16.80;58.30;;;;;;4867228;29;20515;-74
2022/09/17 09:09:03;;;;;;;2.50;1.07;;;16.80;58.30;;;;;;4871769;29;20519;-74
2022/09/17 09:11:32;;;;;;;2.53;1.17;;;16.80;58.30;;;;;;4880050;29;20753;-74
2022/09/17 09:14:11;;;;;;;4.63;1.37;;;16.80;58.30;;;;;;4890024;29;20471;-75
2022/09/17 09:16:44;;;;;;;4.80;1.67;;;16.80;58.20;;;;;;4872908;29;20471;-72
2022/09/17 09:19:21;;;;;;;3.70;1.23;;;16.90;58.20;;;;;;4870429;29;20484;-74
2022/09/17 09:22:02;;;;;;;2.73;1.40;;;16.90;58.00;;;;;;4874223;29;21069;-74
2022/09/17 09:24:40;;;;;;;2.57;2.03;;;16.90;57.90;;;;;;4889310;29;20894;-68
2022/09/17 09:27:17;;;;;;;4.50;1.60;;;16.90;57.90;;;;;;4882066;29;20486;-68
2022/09/17 09:30:02;;;;;;;2.60;1.20;;;16.90;57.70;;;;;;4889755;29;20435;-68
2022/09/17 09:32:49;;;;;;;1.93;0.70;;;16.90;57.60;;;;;;4875234;29;20519;-68
2022/09/17 09:35:20;;;;;;;5.87;1.10;;;16.90;57.50;;;;;;4871255;29;20478;-69
2022/09/17 09:37:59;;;;;;;2.27;1.07;;;16.90;57.50;;;;;;4882263;29;20514;-68
2022/09/17 09:40:35;;;;;;;3.60;1.20;;;16.90;57.50;;;;;;4873266;29;20526;-69
2022/09/17 09:43:15;;;;;;;4.03;1.30;;;16.90;57.40;;;;;;4868560;29;20850;-69
2022/09/17 09:46:09;;;;;;;3.07;0.90;;;16.90;57.30;;;;;;4872916;29;20512;-68
2022/09/17 09:48:47;;;;;;;3.03;1.20;;;16.90;57.30;;;;;;4875095;29;20440;-67
2022/09/17 09:51:27;;;;;;;3.17;0.90;;;16.90;57.30;;;;;;4866877;29;20495;-68
2022/09/17 09:54:17;;;;;;;2.80;0.90;;;16.90;57.30;;;;;;4882470;29;20474;-67
2022/09/17 09:56:55;;;;;;;2.13;1.37;;;16.90;57.20;;;;;;4865348;29;20574;-66
2022/09/17 09:59:24;;;;;;;2.70;1.20;;;16.90;57.30;;;;;;4888924;29;20435;-66
2022/09/17 10:01:53;;;;;;;2.43;0.97;;;16.90;57.30;;;;;;4873201;29;20694;-66
2022/09/17 10:04:24;;;;;;;4.60;1.00;;;16.90;57.20;;;;;;4886645;29;20467;-68
2022/09/17 10:06:55;;;;;;;4.47;1.20;;;16.90;57.20;;;;;;4881548;29;20479;-68
2022/09/17 10:09:23;;;;;;;3.73;1.07;;;16.90;57.20;;;;;;4888293;29;20432;-69
2022/09/17 10:12:01;;;;;;;2.10;1.20;;;16.90;57.20;;;;;;4858493;29;20586;-67
2022/09/17 10:14:31;;;;;;;3.60;1.40;;;16.90;57.10;;;;;;4888396;29;20993;-68
2022/09/17 10:17:19;;;;;;;2.13;1.00;;;16.80;57.00;;;;;;4887366;29;20474;-68
2022/09/17 10:20:13;;;;;;;2.50;0.80;;;16.80;57.00;;;;;;4868464;29;20456;-69
2022/09/17 10:22:48;;;;;;;2.80;1.00;;;16.80;57.10;;;;;;4874083;29;20463;-67
2022/09/17 10:25:28;;;;;;;2.43;1.07;;;16.80;57.20;;;;;;4888810;29;20550;-69
2022/09/17 10:27:57;;;;;;;3.00;0.97;;;16.80;57.10;;;;;;4872302;29;20446;-69
2022/09/17 10:30:26;;;;;;;2.60;1.17;;;16.80;57.00;;;;;;4887905;29;20480;-67
2022/09/17 10:33:17;;;;;;;2.57;1.20;;;16.80;57.10;;;;;;4888672;29;20584;-68
2022/09/17 10:35:57;;;;;;;3.03;1.00;;;16.80;58.10;;;;;;4869265;29;20479;-67
2022/09/17 10:38:31;;;;;;;3.40;1.83;;;16.80;56.90;;;;;;4885379;29;20495;-68
2022/09/17 10:41:13;;;;;;;2.20;1.10;;;16.80;56.90;;;;;;4883441;29;20519;-69
2022/09/17 10:43:41;;;;;;;3.87;1.00;;;16.80;56.80;;;;;;4887097;29;20455;-68
2022/09/17 10:46:16;;;;;;;4.77;1.17;;;16.80;56.90;;;;;;4871844;29;21113;-68
2022/09/17 10:48:56;;;;;;;2.53;1.10;;;16.80;56.80;;;;;;4886405;29;20529;-68
2022/09/17 10:51:26;;;;;;;1.90;0.73;;;16.80;56.90;;;;;;4870407;29;20557;-69
2022/09/17 10:54:08;;;;;;;1.93;0.80;;;16.80;56.70;;;;;;4888146;29;21042;-67
2022/09/17 10:56:40;;;;;;;2.93;0.80;;;16.80;56.60;;;;;;4885649;29;20525;-67
2022/09/17 10:59:37;;;;;;;2.60;1.43;;;16.80;56.50;;;;;;4888023;29;20495;-68
2022/09/17 11:02:26;;;;;;;3.60;2.00;;;16.80;56.60;;;;;;4887613;29;20519;-68
2022/09/17 11:05:06;;;;;;;2.00;1.20;;;16.80;56.40;;;;;;4860516;29;20554;-68
2022/09/17 11:07:44;;;;;;;1.40;0.83;;;16.80;56.40;;;;;;4888128;29;20467;-67
2022/09/17 11:10:18;;;;;;;1.03;0.50;;;16.80;56.40;;;;;;4888579;29;20486;-70
2022/09/17 11:13:04;;;;;;;1.30;0.90;;;16.80;56.70;;;;;;4880855;29;20490;-68
2022/09/17 11:15:45;;;;;;;1.40;0.77;;;16.80;56.50;;;;;;4887683;29;20451;-68
2022/09/17 11:18:40;;;;;;;1.57;1.00;;;16.80;56.30;;;;;;4888405;29;20955;-68
2022/09/17 11:21:37;;;;;;;1.10;0.90;;;16.80;56.30;;;;;;4881977;29;20986;-68
2022/09/17 11:24:47;;;;;;;1.47;0.70;;;16.80;56.30;;;;;;4880924;29;20495;-68
2022/09/17 11:27:32;;;;;;;1.63;0.90;;;16.80;56.40;;;;;;4875835;29;21396;-68
2022/09/17 11:30:10;;;;;;;2.37;0.73;;;16.80;56.30;;;;;;4888327;29;20531;-69
2022/09/17 11:33:07;;;;;;;4.33;1.27;;;16.80;56.30;;;;;;4887549;29;20466;-69
2022/09/17 11:35:38;;;;;;;2.00;0.90;;;16.80;56.20;;;;;;4854969;29;20494;-69
2022/09/17 11:38:14;;;;;;;2.77;1.43;;;16.80;56.10;;;;;;4888012;29;20978;-68
2022/09/17 11:40:46;;;;;;;4.67;1.00;;;16.80;56.20;;;;;;4874595;29;20808;-69
2022/09/17 11:43:23;;;;;;;2.30;0.90;;;16.80;56.20;;;;;;4887426;29;20467;-67
2022/09/17 11:46:00;;;;;;;2.97;1.00;;;16.80;56.20;;;;;;4883461;29;20569;-69
2022/09/17 11:48:34;;;;;;;1.77;0.70;;;16.80;55.70;;;;;;4876056;29;20827;-68
2022/09/17 11:51:15;;;;;;;2.10;0.90;;;16.80;55.60;;;;;;4890849;29;20447;-68
2022/09/17 11:53:50;;;;;;;3.87;1.23;;;16.80;55.60;;;;;;4891455;29;20566;-69
2022/09/17 11:56:23;;;;;;;2.10;0.60;;;16.80;55.80;;;;;;4874253;29;20617;-68
2022/09/17 11:58:55;;;;;;;2.70;1.20;;;16.80;56.20;;;;;;4870214;29;20474;-68
2022/09/17 12:01:29;;;;;;;3.97;0.93;;;16.80;56.20;;;;;;4875327;29;20499;-68
2022/09/17 12:04:01;;;;;;;1.87;0.67;;;16.80;56.80;;;;;;4884649;29;20844;-69
2022/09/17 12:06:38;;;;;;;3.80;1.10;;;16.80;57.20;;;;;;4872464;29;20487;-69
2022/09/17 12:09:15;;;;;;;2.10;0.60;;;16.80;57.40;;;;;;4876091;29;20519;-68
2022/09/17 12:11:51;;;;;;;3.47;0.97;;;16.80;57.20;;;;;;4866887;29;20554;-69
2022/09/17 12:14:24;;;;;;;1.20;0.70;;;16.80;57.40;;;;;;4874444;29;20915;-68
2022/09/17 12:16:58;;;;;;;2.80;0.87;;;16.70;57.50;;;;;;4879662;29;20459;-68
2022/09/17 12:19:33;;;;;;;1.53;0.80;;;16.70;57.50;;;;;;4887982;29;20467;-69
2022/09/17 12:22:06;;;;;;;1.10;0.50;;;16.70;57.60;;;;;;4884669;29;20470;-68
2022/09/17 12:24:38;;;;;;;1.73;0.57;;;16.70;57.70;;;;;;4890329;29;20979;-68
2022/09/17 12:27:15;;;;;;;1.47;0.70;;;16.70;58.10;;;;;;4867315;29;20550;-68
2022/09/17 12:30:02;;;;;;;5.40;0.70;;;16.70;58.00;;;;;;4874601;29;20685;-68
2022/09/17 12:32:56;;;;;;;1.53;0.60;;;16.70;58.00;;;;;;4890087;29;20475;-69
2022/09/17 12:35:53;;;;;;;1.40;0.50;;;16.70;58.10;;;;;;4882482;29;21031;-68
2022/09/17 12:39:00;;;;;;;1.90;0.70;;;16.70;57.90;;;;;;4890193;29;20565;-66
2022/09/17 12:41:42;;;;;;;3.20;0.77;;;16.70;57.80;;;;;;4852908;29;20511;-67
2022/09/17 12:44:45;;;;;;;1.93;0.63;;;16.70;57.90;;;;;;4953982;23;20989;-56
2022/09/17 12:47:49;;;;;;;1.17;0.50;;;16.80;58.40;;;;;;4930360;28;20478;-51
2022/09/17 12:50:23;;;;;;;1.03;0.60;;;16.70;57.90;;;;;;4934804;29;20562;-52
2022/09/17 12:53:07;;;;;;;1.17;0.50;;;16.70;58.10;;;;;;4934824;29;20451;-53
2022/09/17 12:55:44;;;;;;;2.10;0.70;;;16.70;58.10;;;;;;4944434;29;20468;-52
2022/09/17 12:58:28;;;;;;;3.10;0.80;;;16.70;58.10;;;;;;4925470;29;20450;-53
2022/09/17 13:01:03;;;;;;;1.27;0.87;;;16.70;58.00;;;;;;4909490;28;20457;-53
2022/09/17 13:03:36;;;;;;;2.37;0.80;;;16.70;58.00;;;;;;4936386;29;20829;-54
2022/09/17 13:06:33;;;;;;;2.70;0.60;;;16.70;58.00;;;;;;4932919;29;20478;-53
2022/09/17 13:09:28;;;;;;;3.00;1.00;;;16.70;58.00;;;;;;4934108;29;20459;-53
2022/09/17 13:12:17;;;;;;;2.33;1.27;;;16.70;58.00;;;;;;4927448;29;20514;-53
2022/09/17 13:15:25;;;;;;;1.57;0.60;;;16.70;58.20;;;;;;4935556;29;20476;-54
2022/09/17 13:18:01;;;;;;;2.10;0.93;;;16.70;58.10;;;;;;4932786;29;20478;-52
2022/09/17 13:21:02;;;;;;;1.20;0.60;;;16.70;58.20;;;;;;4933763;29;20468;-53
2022/09/17 13:23:38;;;;;;;2.13;0.93;;;16.70;58.40;;;;;;4933916;29;20511;-54
2022/09/17 13:26:08;;;;;;;1.67;0.60;;;16.70;58.20;;;;;;4926513;29;20480;-54
2022/09/17 13:28:38;;;;;;;3.80;0.70;;;16.70;58.10;;;;;;4949248;29;20876;-53